LYBELGKR

Guest
Details From LYBE - Belgrade
To LGKR - Ioannis Kapodistrias Intl
Flight Number -
Tags Generated
Created
Modified
Stats Distance 314 nm / 581 km
Max Altitude 0 ft / 0 m
Waypoints 3
Social Downloads 3
Likes 0
Share VATSIM

Download

Looking for another format? Having issues loading an existing format? Contact us
Advertisement - Login to hide

Notes

Generated

Route

LYBE GAR02 LGKR

ID Type Via Altitude Latitude Longitude Leg Dist Tot Dist Heading (true) Name
O LYBE APT - 0 ft / 0 m 44.82652˚ 20.29097˚ - 0 nm - -
GAR02 FIX - 0 ft / 0 m 39.63925˚ 19.90187˚ 312 nm 312 nm 183° / 183° -
O LGKR APT - 0 ft / 0 m 39.61228˚ 19.90921˚ 1 nm 313 nm 168° / 168° -

Altitude Profile

Advertisement - Login to hide

Weather


0- 5 10 15 20 25 30 35+ Temperature / ° C

Clouds and Precipitation
Forecast for 2017-12-13 00:00 UTC. Updated 42 minutes ago

Ground ~20,000 ft ~40,000 ft Winds

LYBE

Details ICAO LYBE (BEG)
Name Belgrade
Region Serbia and Montenegro
Timezone Europe/Belgrade (UTC+1.0)
Stats Elevation 335 ft / 102 m (AMSL)
Location 44.818429° 20.309211°
Runways 1
Magnetic Variation 4.671° E

METAR

LYBE 122200Z 16009KT CAVOK 14/05 Q1014 NOSIG

Decode

TAF

TAF LYBE 121700Z 1218/1318 18009KT CAVOK TX15/1218Z TN04/1318Z BECMG 1305/1307 32010KT BECMG 1309/1311 4000 -RA BR BKN010 BKN027

Decode

Departure Runways

ID Width Length Bearing (true) Bearing (mag) Surface Threshold Offset Overrun Length
12 148 ft / 45 m 11,138 ft / 3,395 m 122.00° 117.33° Asphalt 1,000 ft / 305 m 0 ft / 0 m
30 148 ft / 45 m 11,138 ft / 3,395 m 302.03° 297.36° Asphalt 1,312 ft / 400 m 0 ft / 0 m

LGKR

Details ICAO LGKR (CFU)
Name IOANNIS KAPODISTRIAS INTL
Region Greece
Timezone Europe/Athens (UTC+2.0)
Stats Elevation 6 ft / 2 m (AMSL)
Location 39.601779° 19.911908°
Runways 1
Magnetic Variation 4.097° E

METAR

LGKR 122150Z 17007KT 9999 FEW008 SCT016 15/14 Q1023 NOSIG

Decode

TAF

TAF LGKR 121700Z 1218/1318 16012KT 8000 SCT015 BKN025 BKN070 PROB40 TEMPO 1218/1312 3000 RA BR BKN010 OVC025 BECMG 1316/1318 22012KT

Decode

Destination Runways

ID Width Length Bearing (true) Bearing (mag) Surface Threshold Offset Overrun Length
17 148 ft / 45 m 7,815 ft / 2,382 m 168.81° 164.71° Asphalt 1,348 ft / 411 m 0 ft / 0 m
35 148 ft / 45 m 7,815 ft / 2,382 m 348.81° 344.71° Asphalt 213 ft / 65 m 0 ft / 0 m

Popular Alternatives